createdAt,value
2023-09-27T00:00:35.527Z,10.17
2023-09-27T00:03:37.593Z,12.73
2023-09-27T00:06:39.811Z,10.70
2023-09-27T00:09:42.082Z,9.60
2023-09-27T00:12:44.269Z,11.98
2023-09-27T00:15:50.704Z,12.67
2023-09-27T00:18:52.750Z,12.90
2023-09-27T00:21:58.107Z,12.70
2023-09-27T00:25:00.885Z,10.68
2023-09-27T00:28:02.939Z,10.73
2023-09-27T00:31:09.299Z,10.53
2023-09-27T00:34:11.248Z,11.33
2023-09-27T00:37:13.334Z,10.35
2023-09-27T00:40:16.555Z,11.52
2023-09-27T00:43:32.003Z,10.15
2023-09-27T00:46:34.083Z,9.40
2023-09-27T00:49:36.246Z,12.27
2023-09-27T00:52:41.707Z,9.80
2023-09-27T00:55:43.564Z,10.80
2023-09-27T00:58:45.881Z,11.50
2023-09-27T01:01:48.181Z,12.87
2023-09-27T01:04:50.195Z,11.37
2023-09-27T01:07:52.939Z,10.43
2023-09-27T01:10:55.112Z,12.27
2023-09-27T01:13:57.648Z,10.50
2023-09-27T01:17:12.631Z,10.13
2023-09-27T01:20:14.836Z,9.33
2023-09-27T01:23:17.026Z,10.55
2023-09-27T01:26:20.007Z,13.65
2023-09-27T01:29:22.386Z,9.80
2023-09-27T01:32:24.563Z,13.10
2023-09-27T01:35:26.789Z,12.13
2023-09-27T01:38:28.805Z,12.18
2023-09-27T01:41:30.817Z,11.05
2023-09-27T01:44:33.011Z,10.40
2023-09-27T01:47:35.201Z,10.53
2023-09-27T01:50:37.296Z,11.93
2023-09-27T01:53:39.385Z,11.93
2023-09-27T01:56:41.358Z,11.80
2023-09-27T02:02:47.320Z,11.43
2023-09-27T02:05:49.681Z,14.50
2023-09-27T02:08:51.993Z,13.85
2023-09-27T02:11:54.225Z,14.98
2023-09-27T02:14:56.170Z,14.05
2023-09-27T02:17:58.165Z,12.05
2023-09-27T02:21:00.301Z,14.70
2023-09-27T02:24:02.546Z,12.75
2023-09-27T02:27:04.584Z,12.65
2023-09-27T02:30:12.807Z,13.45
2023-09-27T02:33:14.889Z,12.52
2023-09-27T02:36:16.929Z,13.57
2023-09-27T02:39:19.247Z,15.00
2023-09-27T02:42:21.540Z,11.77
2023-09-27T02:45:23.511Z,14.10
2023-09-27T02:48:28.506Z,12.48
2023-09-27T02:51:30.424Z,13.17
2023-09-27T02:54:32.349Z,15.85
2023-09-27T02:57:34.364Z,15.23
2023-09-27T03:00:36.308Z,16.10
2023-09-27T03:03:41.526Z,13.63
2023-09-27T03:06:43.704Z,14.23
2023-09-27T03:09:47.112Z,12.38
2023-09-27T03:12:50.547Z,14.35
2023-09-27T03:16:00.007Z,17.15
2023-09-27T03:19:05.505Z,13.77
2023-09-27T03:22:08.611Z,12.13
2023-09-27T03:25:11.187Z,14.30
2023-09-27T03:28:13.084Z,13.52
2023-09-27T03:31:15.168Z,15.88
2023-09-27T03:34:17.265Z,16.00
2023-09-27T03:37:20.306Z,15.20
2023-09-27T03:40:22.179Z,15.82
2023-09-27T03:43:24.071Z,13.07
2023-09-27T03:46:26.176Z,12.35
2023-09-27T03:49:28.143Z,12.05
2023-09-27T03:52:30.022Z,16.00
2023-09-27T03:55:32.040Z,16.33
2023-09-27T03:58:34.042Z,14.77
2023-09-27T04:01:36.128Z,13.07
2023-09-27T04:04:44.189Z,13.20
2023-09-27T04:07:49.274Z,17.33
2023-09-27T04:10:51.178Z,12.93
2023-09-27T04:13:53.183Z,13.57
2023-09-27T04:17:01.030Z,13.45
2023-09-27T04:20:10.460Z,14.95
2023-09-27T04:23:12.974Z,14.37
2023-09-27T04:26:15.087Z,13.27
2023-09-27T04:29:17.078Z,13.57
2023-09-27T04:32:19.274Z,12.68
2023-09-27T04:35:25.720Z,14.00
2023-09-27T04:38:28.172Z,13.90
2023-09-27T04:41:30.509Z,13.10
2023-09-27T04:44:32.574Z,13.43
2023-09-27T04:47:34.609Z,14.25
2023-09-27T04:50:36.720Z,12.93
2023-09-27T04:53:39.381Z,16.20
2023-09-27T04:56:41.769Z,13.90
2023-09-27T04:59:43.982Z,13.52
2023-09-27T05:02:50.761Z,14.00
2023-09-27T05:05:53.517Z,14.57
2023-09-27T05:08:56.262Z,16.13
2023-09-27T05:11:58.201Z,13.07
2023-09-27T05:15:00.168Z,16.13
2023-09-27T05:18:02.288Z,15.70
2023-09-27T05:21:07.567Z,14.73
2023-09-27T05:24:09.823Z,17.63
2023-09-27T05:27:12.186Z,12.02
2023-09-27T05:30:14.314Z,15.40
2023-09-27T05:33:16.318Z,13.68
2023-09-27T05:36:18.296Z,13.80
2023-09-27T05:39:20.422Z,13.03
2023-09-27T05:42:22.538Z,13.07
2023-09-27T05:45:25.176Z,15.55
2023-09-27T05:48:27.806Z,12.70
2023-09-27T05:51:31.702Z,13.30
2023-09-27T05:54:34.226Z,14.67
2023-09-27T05:57:36.603Z,14.45
2023-09-27T06:00:47.906Z,17.45
2023-09-27T06:03:50.787Z,12.60
2023-09-27T06:06:56.363Z,14.20
2023-09-27T06:09:58.497Z,15.20
2023-09-27T06:13:00.478Z,15.20
2023-09-27T06:16:03.514Z,13.00
2023-09-27T06:19:06.276Z,12.63
2023-09-27T06:22:08.435Z,13.35
2023-09-27T06:25:10.781Z,15.90
2023-09-27T06:28:14.891Z,13.02
2023-09-27T06:31:16.833Z,13.25
2023-09-27T06:34:19.104Z,13.98
2023-09-27T06:37:21.471Z,14.40
2023-09-27T06:40:26.216Z,16.63
2023-09-27T06:43:30.207Z,13.27
2023-09-27T06:46:48.351Z,14.45
2023-09-27T06:49:52.576Z,14.48
2023-09-27T06:53:07.035Z,15.27
2023-09-27T06:56:16.874Z,16.83
2023-09-27T06:59:19.182Z,13.25
2023-09-27T07:02:21.400Z,13.55
2023-09-27T07:05:24.623Z,16.85
2023-09-27T07:08:27.031Z,13.27
2023-09-27T07:11:29.414Z,16.03
2023-09-27T07:14:33.063Z,14.65
2023-09-27T07:17:35.375Z,14.82
2023-09-27T07:20:38.189Z,16.00
2023-09-27T07:23:40.420Z,16.80
2023-09-27T07:26:47.818Z,13.87
2023-09-27T07:29:50.572Z,16.40
2023-09-27T07:32:53.246Z,15.55
2023-09-27T07:35:55.704Z,14.27
2023-09-27T07:38:59.382Z,14.52
2023-09-27T07:42:01.630Z,15.30
2023-09-27T07:45:04.350Z,15.73
2023-09-27T07:48:07.016Z,15.70
2023-09-27T07:51:18.143Z,16.05
2023-09-27T07:54:20.334Z,16.00
2023-09-27T07:57:22.343Z,15.17
2023-09-27T08:00:29.998Z,14.95
2023-09-27T08:03:32.247Z,16.10
2023-09-27T08:06:37.668Z,14.65
2023-09-27T08:09:41.761Z,13.88
2023-09-27T08:12:44.661Z,12.30
2023-09-27T08:15:49.307Z,12.27
2023-09-27T08:18:51.490Z,12.70
2023-09-27T08:21:57.076Z,13.30
2023-09-27T08:24:59.559Z,11.98
2023-09-27T08:28:02.641Z,12.63
2023-09-27T08:31:07.175Z,11.98
2023-09-27T08:34:09.279Z,12.60
2023-09-27T08:37:12.839Z,11.32
2023-09-27T08:40:15.223Z,12.60
2023-09-27T08:43:17.592Z,10.63
2023-09-27T08:46:22.765Z,12.10
2023-09-27T08:49:25.556Z,12.95
2023-09-27T08:52:29.131Z,12.15
2023-09-27T08:55:31.498Z,12.20
2023-09-27T08:58:35.552Z,11.87
2023-09-27T09:01:37.713Z,9.85
2023-09-27T09:04:39.882Z,11.45
2023-09-27T09:07:45.127Z,9.23
2023-09-27T09:10:48.383Z,10.43
2023-09-27T09:14:06.392Z,9.33
2023-09-27T09:17:09.517Z,10.45
2023-09-27T09:20:37.613Z,9.00
2023-09-27T09:23:40.404Z,12.13
2023-09-27T09:26:42.581Z,10.20
2023-09-27T09:29:48.394Z,8.93
2023-09-27T09:32:51.650Z,10.13
2023-09-27T09:35:54.111Z,8.93
2023-09-27T09:39:05.777Z,9.32
2023-09-27T09:42:07.643Z,10.65
2023-09-27T09:45:11.805Z,10.30
2023-09-27T09:48:15.251Z,11.30
2023-09-27T09:51:17.279Z,9.90
2023-09-27T09:54:39.313Z,10.20
2023-09-27T09:57:52.439Z,9.68
2023-09-27T10:00:55.620Z,9.23
2023-09-27T10:03:58.273Z,10.60
2023-09-27T10:07:00.483Z,8.80
2023-09-27T10:10:05.363Z,8.50
2023-09-27T10:13:07.920Z,11.18
2023-09-27T10:16:10.106Z,9.17
2023-09-27T10:19:12.067Z,14.43
2023-09-27T10:22:20.531Z,10.55
2023-09-27T10:25:28.461Z,12.43
2023-09-27T10:28:30.646Z,9.90
2023-09-27T10:31:33.165Z,10.00
2023-09-27T10:34:42.507Z,10.13
2023-09-27T10:38:00.862Z,10.23
2023-09-27T10:41:04.811Z,8.32
2023-09-27T10:44:07.184Z,10.85
2023-09-27T10:47:10.569Z,10.43
2023-09-27T10:50:12.978Z,8.43
2023-09-27T10:53:16.281Z,7.50
2023-09-27T10:56:19.097Z,9.63
2023-09-27T10:59:28.517Z,11.30
2023-09-27T11:02:31.275Z,11.60
2023-09-27T11:05:33.436Z,8.35
2023-09-27T11:08:36.160Z,8.68
2023-09-27T11:11:38.338Z,9.30
2023-09-27T11:14:45.274Z,9.48
2023-09-27T11:17:47.733Z,8.50
2023-09-27T11:20:50.018Z,7.22
2023-09-27T11:24:02.848Z,9.10
2023-09-27T11:27:05.064Z,9.02
2023-09-27T11:30:07.891Z,9.45
2023-09-27T11:33:09.817Z,7.87
2023-09-27T11:36:12.008Z,7.78
2023-09-27T11:39:18.090Z,9.85
2023-09-27T11:42:23.759Z,10.05
2023-09-27T11:45:25.892Z,9.05
2023-09-27T11:48:34.780Z,7.83
2023-09-27T11:51:37.130Z,8.00
2023-09-27T11:54:46.746Z,9.80
2023-09-27T11:57:48.816Z,7.93
2023-09-27T12:00:50.858Z,8.45
2023-09-27T12:03:53.345Z,7.80
2023-09-27T12:07:00.643Z,8.18
2023-09-27T12:10:03.106Z,10.18
2023-09-27T12:13:05.258Z,9.43
2023-09-27T12:16:07.313Z,11.38
2023-09-27T12:19:09.513Z,10.40
2023-09-27T12:22:15.400Z,7.22
2023-09-27T12:25:17.401Z,7.72
2023-09-27T12:28:20.775Z,11.13
2023-09-27T12:31:23.119Z,7.28
2023-09-27T12:34:25.104Z,8.17
2023-09-27T12:37:27.504Z,12.73
2023-09-27T12:40:29.595Z,9.85
2023-09-27T12:43:31.591Z,8.35
2023-09-27T12:46:33.551Z,10.23
2023-09-27T12:49:36.976Z,9.87
2023-09-27T12:52:38.899Z,7.72
2023-09-27T12:55:42.920Z,8.70
2023-09-27T12:58:45.737Z,9.20
2023-09-27T13:01:47.825Z,8.18
2023-09-27T13:04:49.747Z,8.77
2023-09-27T13:07:51.682Z,9.38
2023-09-27T13:10:54.087Z,8.27
2023-09-27T13:13:56.074Z,8.75
2023-09-27T13:16:58.021Z,10.23
2023-09-27T13:19:59.880Z,8.17
2023-09-27T13:23:02.178Z,7.57
2023-09-27T13:26:04.339Z,10.30
2023-09-27T13:29:06.436Z,10.52
2023-09-27T13:32:09.700Z,9.13
2023-09-27T13:35:12.158Z,8.53
2023-09-27T13:38:14.355Z,9.73
2023-09-27T13:41:19.599Z,10.50
2023-09-27T13:44:23.878Z,10.93
2023-09-27T13:47:26.056Z,7.75
2023-09-27T13:50:29.293Z,12.53
2023-09-27T13:53:31.513Z,9.63
2023-09-27T13:56:33.692Z,7.78
2023-09-27T13:59:35.837Z,9.63
2023-09-27T14:02:37.875Z,8.82
2023-09-27T14:05:40.140Z,13.20
2023-09-27T14:08:42.412Z,9.35
2023-09-27T14:11:44.618Z,6.90
2023-09-27T14:14:46.772Z,9.32
2023-09-27T14:17:48.964Z,8.90
2023-09-27T14:20:52.162Z,8.50
2023-09-27T14:23:54.431Z,7.97
2023-09-27T14:26:56.805Z,8.75
2023-09-27T14:29:59.090Z,10.02
2023-09-27T14:33:01.996Z,9.23
2023-09-27T14:36:05.085Z,9.23
2023-09-27T14:39:12.722Z,9.07
2023-09-27T14:42:14.760Z,8.48
2023-09-27T14:45:28.915Z,7.28
2023-09-27T14:48:33.901Z,7.88
2023-09-27T14:51:35.978Z,8.93
2023-09-27T14:54:38.175Z,8.02
2023-09-27T14:57:42.183Z,9.55
2023-09-27T15:00:44.344Z,10.15
2023-09-27T15:03:46.646Z,7.57
2023-09-27T15:06:48.710Z,9.17
2023-09-27T15:09:50.664Z,7.95
2023-09-27T15:12:52.676Z,9.70
2023-09-27T15:15:54.753Z,10.93
2023-09-27T15:18:56.707Z,9.63
2023-09-27T15:21:59.242Z,8.67
2023-09-27T15:25:01.367Z,6.68
2023-09-27T15:28:03.468Z,8.02
2023-09-27T15:31:07.038Z,8.23
2023-09-27T15:34:09.027Z,8.48
2023-09-27T15:37:11.099Z,9.07
2023-09-27T15:40:13.115Z,9.00
2023-09-27T15:43:15.170Z,8.27
2023-09-27T15:46:18.187Z,9.30
2023-09-27T15:49:20.264Z,10.80
2023-09-27T15:52:29.488Z,10.40
2023-09-27T15:55:31.495Z,8.90
2023-09-27T15:58:34.220Z,9.20
2023-09-27T16:01:36.677Z,10.23
2023-09-27T16:04:51.257Z,12.75
2023-09-27T16:07:54.627Z,9.40
2023-09-27T16:10:57.278Z,8.05
2023-09-27T16:13:59.678Z,9.30
2023-09-27T16:17:01.784Z,9.23
2023-09-27T16:20:03.895Z,12.48
2023-09-27T16:23:06.563Z,12.93
2023-09-27T16:26:08.641Z,8.48
2023-09-27T16:29:10.695Z,11.13
2023-09-27T16:32:13.207Z,8.90
2023-09-27T16:35:15.375Z,8.38
2023-09-27T16:38:17.301Z,10.13
2023-09-27T16:41:20.875Z,8.68
2023-09-27T16:44:23.004Z,11.15
2023-09-27T16:47:24.851Z,12.35
2023-09-27T16:50:27.160Z,11.00
2023-09-27T16:53:29.195Z,10.00
2023-09-27T16:56:32.754Z,10.13
2023-09-27T16:59:35.386Z,9.73
2023-09-27T17:02:37.757Z,11.57
2023-09-27T17:05:39.953Z,12.48
2023-09-27T17:08:41.912Z,13.67
2023-09-27T17:11:44.093Z,11.65
2023-09-27T17:14:46.145Z,12.25
2023-09-27T17:17:49.680Z,10.63
2023-09-27T17:20:51.772Z,14.15
2023-09-27T17:23:54.240Z,13.63
2023-09-27T17:26:56.883Z,12.30
2023-09-27T17:30:00.059Z,13.13
2023-09-27T17:33:03.187Z,10.85
2023-09-27T17:36:05.810Z,12.40
2023-09-27T17:39:08.404Z,13.30
2023-09-27T17:42:10.434Z,15.90
2023-09-27T17:45:13.457Z,14.82
2023-09-27T17:48:15.450Z,13.07
2023-09-27T17:51:17.744Z,12.83
2023-09-27T17:54:20.415Z,12.67
2023-09-27T17:57:22.965Z,11.80
2023-09-27T18:00:27.461Z,13.75
2023-09-27T18:03:29.800Z,12.98
2023-09-27T18:06:31.889Z,12.18
2023-09-27T18:09:37.548Z,13.67
2023-09-27T18:12:39.470Z,11.75
2023-09-27T18:15:41.520Z,12.40
2023-09-27T18:18:44.717Z,10.80
2023-09-27T18:21:47.269Z,12.65
2023-09-27T18:24:49.424Z,10.13
2023-09-27T18:27:51.392Z,13.02
2023-09-27T18:30:53.336Z,10.80
2023-09-27T18:33:56.649Z,10.95
2023-09-27T18:36:59.161Z,11.57
2023-09-27T18:40:01.210Z,12.70
2023-09-27T18:43:03.621Z,12.60
2023-09-27T18:46:06.325Z,10.35
2023-09-27T18:49:08.502Z,12.05
2023-09-27T18:52:10.851Z,11.77
2023-09-27T18:55:12.847Z,11.43
2023-09-27T18:58:15.707Z,13.20
2023-09-27T19:01:17.854Z,10.63
2023-09-27T19:04:20.138Z,13.65
2023-09-27T19:07:22.261Z,11.40
2023-09-27T19:10:25.111Z,9.53
2023-09-27T19:13:27.258Z,10.27
2023-09-27T19:16:32.306Z,10.45
2023-09-27T19:19:34.306Z,12.07
2023-09-27T19:22:37.020Z,10.60
2023-09-27T19:25:39.609Z,10.63
2023-09-27T19:28:41.531Z,14.93
2023-09-27T19:31:43.924Z,11.50
2023-09-27T19:34:46.498Z,8.88
2023-09-27T19:37:48.718Z,9.13
2023-09-27T19:40:51.144Z,11.20
2023-09-27T19:43:53.404Z,11.77
2023-09-27T19:46:56.451Z,13.45
2023-09-27T19:49:59.937Z,10.88
2023-09-27T19:53:02.062Z,10.85
2023-09-27T19:59:38.555Z,9.57
2023-09-27T20:06:43.726Z,11.15
2023-09-27T20:10:32.385Z,8.95
2023-09-27T20:17:20.625Z,9.77
2023-09-27T20:21:24.319Z,10.70
2023-09-27T20:24:44.757Z,11.45
2023-09-27T20:34:52.161Z,9.13
2023-09-27T20:52:05.370Z,9.35
2023-09-27T21:01:59.703Z,9.80
2023-09-27T21:12:16.571Z,9.88
2023-09-27T21:47:37.757Z,8.18
2023-09-27T22:02:00.393Z,12.35
2023-09-27T22:05:02.486Z,9.50
2023-09-27T22:08:04.970Z,10.35
2023-09-27T22:11:07.042Z,10.77
2023-09-27T22:14:09.185Z,12.07
2023-09-27T22:17:11.518Z,9.05
2023-09-27T22:20:17.921Z,9.13
2023-09-27T22:23:33.414Z,11.15
2023-09-27T22:26:35.520Z,9.30
2023-09-27T22:29:41.229Z,9.50
2023-09-27T22:32:44.361Z,9.13
2023-09-27T22:35:53.679Z,9.35
2023-09-27T22:38:55.836Z,12.32
2023-09-27T22:41:57.852Z,11.90
2023-09-27T22:45:01.655Z,9.87
2023-09-27T22:48:06.908Z,10.20
2023-09-27T22:51:11.423Z,9.52
2023-09-27T22:54:18.034Z,11.00
2023-09-27T22:57:22.103Z,8.40
2023-09-27T23:00:26.028Z,10.57
2023-09-27T23:03:30.586Z,10.07
2023-09-27T23:06:32.640Z,9.63
2023-09-27T23:09:37.739Z,9.90
2023-09-27T23:12:40.151Z,9.30
2023-09-27T23:15:42.110Z,10.00
2023-09-27T23:18:44.163Z,10.52
2023-09-27T23:21:49.626Z,9.77
2023-09-27T23:25:11.638Z,8.88
2023-09-27T23:28:29.015Z,10.05
2023-09-27T23:31:31.135Z,9.10
2023-09-27T23:34:38.562Z,10.00
2023-09-27T23:37:40.833Z,11.10
2023-09-27T23:40:43.259Z,9.63
2023-09-27T23:43:48.709Z,8.10
2023-09-27T23:46:53.051Z,11.93
2023-09-27T23:49:58.572Z,10.50
2023-09-27T23:53:00.761Z,9.07
2023-09-27T23:56:03.223Z,9.90
2023-09-27T23:59:21.623Z,10.23
